Terminal Aerodrome Forecast
Issued by NWS Albany, NY

Home | Current Version | Previous Version | Text Only | Print | Product List | Glossary On
Versions: 1 2 3 4 5 6 7 8 9 10 11 12 13 14 15 16 17 18 19 20 21 22 23
145
FTUS41 KALY 291737
TAFGFL
TAF
KGFL 291737Z 2918/3018 16007KT P6SM SCT100
     FM291900 16007KT P6SM VCTS SCT040CB BKN100
      TEMPO 2921/2923 VRB10G25KT 2SM TSRA SCT015 OVC030CB
     FM292300 16006KT P6SM VCTS SCT015 OVC040CB
      TEMPO 2923/3001 VRB10G25KT 3SM TSRA OVC015CB
     FM300200 19003KT 6SM BR VCSH SCT015 BKN040
     FM300900 VRB03KT 4SM BR VCSH BKN015 OVC090
     FM301400 20006KT P6SM SCT015 BKN090=

USA.gov is the U.S. government's official web portal to all federal, state and local government web resources and services.